sensor_id;sensor_type;location;lat;lon;timestamp;P1;durP1;ratioP1;P2;durP2;ratioP2
12745;SDS011;6437;53.686;10.030;2023-05-23T00:01:04;13.73;;;8.77;;
12745;SDS011;6437;53.686;10.030;2023-05-23T00:03:07;10.25;;;8.45;;
12745;SDS011;6437;53.686;10.030;2023-05-23T00:05:10;8.73;;;7.88;;
12745;SDS011;6437;53.686;10.030;2023-05-23T00:07:11;9.45;;;8.20;;
12745;SDS011;6437;53.686;10.030;2023-05-23T00:09:14;13.05;;;8.20;;
12745;SDS011;6437;53.686;10.030;2023-05-23T00:11:16;13.43;;;9.13;;
12745;SDS011;6437;53.686;10.030;2023-05-23T00:13:19;9.65;;;8.70;;
12745;SDS011;6437;53.686;10.030;2023-05-23T00:15:21;11.13;;;7.82;;
12745;SDS011;6437;53.686;10.030;2023-05-23T00:17:23;11.98;;;7.93;;
12745;SDS011;6437;53.686;10.030;2023-05-23T00:19:25;26.88;;;10.18;;
12745;SDS011;6437;53.686;10.030;2023-05-23T00:21:27;15.32;;;8.68;;
12745;SDS011;6437;53.686;10.030;2023-05-23T00:23:29;12.80;;;10.13;;
12745;SDS011;6437;53.686;10.030;2023-05-23T00:25:35;14.25;;;10.27;;
12745;SDS011;6437;53.686;10.030;2023-05-23T00:27:40;10.95;;;9.70;;
12745;SDS011;6437;53.686;10.030;2023-05-23T00:29:42;11.90;;;9.00;;
12745;SDS011;6437;53.686;10.030;2023-05-23T00:31:44;25.35;;;11.00;;
12745;SDS011;6437;53.686;10.030;2023-05-23T00:33:46;18.02;;;9.43;;
12745;SDS011;6437;53.686;10.030;2023-05-23T00:35:47;9.55;;;8.65;;
12745;SDS011;6437;53.686;10.030;2023-05-23T00:37:49;12.85;;;9.38;;
12745;SDS011;6437;53.686;10.030;2023-05-23T00:39:51;12.48;;;10.10;;
12745;SDS011;6437;53.686;10.030;2023-05-23T00:41:56;10.32;;;9.32;;
12745;SDS011;6437;53.686;10.030;2023-05-23T00:43:58;10.40;;;9.35;;
12745;SDS011;6437;53.686;10.030;2023-05-23T00:46:00;11.57;;;10.38;;
12745;SDS011;6437;53.686;10.030;2023-05-23T00:48:02;11.95;;;10.13;;
12745;SDS011;6437;53.686;10.030;2023-05-23T00:50:07;15.40;;;9.45;;
12745;SDS011;6437;53.686;10.030;2023-05-23T00:52:10;13.98;;;11.02;;
12745;SDS011;6437;53.686;10.030;2023-05-23T00:54:15;17.15;;;10.07;;
12745;SDS011;6437;53.686;10.030;2023-05-23T00:56:20;14.20;;;10.20;;
12745;SDS011;6437;53.686;10.030;2023-05-23T01:00:25;12.10;;;9.95;;
12745;SDS011;6437;53.686;10.030;2023-05-23T01:02:28;14.63;;;11.93;;
12745;SDS011;6437;53.686;10.030;2023-05-23T01:04:32;12.23;;;10.82;;
12745;SDS011;6437;53.686;10.030;2023-05-23T01:06:36;14.18;;;12.70;;
12745;SDS011;6437;53.686;10.030;2023-05-23T01:08:39;12.60;;;11.40;;
12745;SDS011;6437;53.686;10.030;2023-05-23T01:10:41;14.35;;;12.13;;
12745;SDS011;6437;53.686;10.030;2023-05-23T01:12:45;13.32;;;11.25;;
12745;SDS011;6437;53.686;10.030;2023-05-23T01:14:58;14.10;;;10.30;;
12745;SDS011;6437;53.686;10.030;2023-05-23T01:17:06;13.60;;;10.98;;
12745;SDS011;6437;53.686;10.030;2023-05-23T01:26:26;16.58;;;12.18;;
12745;SDS011;6437;53.686;10.030;2023-05-23T01:28:39;18.35;;;14.70;;
12745;SDS011;6437;53.686;10.030;2023-05-23T01:30:45;19.70;;;13.85;;
12745;SDS011;6437;53.686;10.030;2023-05-23T01:32:52;17.17;;;14.80;;
12745;SDS011;6437;53.686;10.030;2023-05-23T01:34:55;15.57;;;12.88;;
12745;SDS011;6437;53.686;10.030;2023-05-23T01:36:58;20.33;;;15.30;;
12745;SDS011;6437;53.686;10.030;2023-05-23T01:39:00;17.00;;;14.15;;
12745;SDS011;6437;53.686;10.030;2023-05-23T01:41:01;19.98;;;14.38;;
12745;SDS011;6437;53.686;10.030;2023-05-23T01:43:03;22.35;;;13.60;;
12745;SDS011;6437;53.686;10.030;2023-05-23T01:45:07;26.98;;;14.02;;
12745;SDS011;6437;53.686;10.030;2023-05-23T01:47:10;15.85;;;13.95;;
12745;SDS011;6437;53.686;10.030;2023-05-23T01:49:13;15.70;;;13.50;;
12745;SDS011;6437;53.686;10.030;2023-05-23T01:51:18;15.43;;;12.52;;
12745;SDS011;6437;53.686;10.030;2023-05-23T01:53:22;22.27;;;13.95;;
12745;SDS011;6437;53.686;10.030;2023-05-23T01:55:24;14.73;;;13.23;;
12745;SDS011;6437;53.686;10.030;2023-05-23T01:57:26;17.48;;;14.05;;
12745;SDS011;6437;53.686;10.030;2023-05-23T01:59:30;16.17;;;12.70;;
12745;SDS011;6437;53.686;10.030;2023-05-23T02:01:33;17.83;;;14.30;;
12745;SDS011;6437;53.686;10.030;2023-05-23T02:03:38;14.75;;;11.75;;
12745;SDS011;6437;53.686;10.030;2023-05-23T02:05:40;14.38;;;13.02;;
12745;SDS011;6437;53.686;10.030;2023-05-23T02:07:42;14.77;;;13.07;;
12745;SDS011;6437;53.686;10.030;2023-05-23T02:09:44;16.48;;;13.77;;
12745;SDS011;6437;53.686;10.030;2023-05-23T02:11:46;14.73;;;13.32;;
12745;SDS011;6437;53.686;10.030;2023-05-23T02:13:48;16.75;;;15.00;;
12745;SDS011;6437;53.686;10.030;2023-05-23T02:15:50;15.13;;;13.00;;
12745;SDS011;6437;53.686;10.030;2023-05-23T02:17:54;16.30;;;14.18;;
12745;SDS011;6437;53.686;10.030;2023-05-23T02:19:56;16.52;;;12.45;;
12745;SDS011;6437;53.686;10.030;2023-05-23T02:21:58;12.95;;;11.65;;
12745;SDS011;6437;53.686;10.030;2023-05-23T02:24:00;16.85;;;13.27;;
12745;SDS011;6437;53.686;10.030;2023-05-23T02:26:02;14.25;;;12.95;;
12745;SDS011;6437;53.686;10.030;2023-05-23T02:28:03;17.30;;;15.35;;
12745;SDS011;6437;53.686;10.030;2023-05-23T02:30:05;24.60;;;14.77;;
12745;SDS011;6437;53.686;10.030;2023-05-23T02:32:08;23.33;;;17.48;;
12745;SDS011;6437;53.686;10.030;2023-05-23T02:34:11;24.88;;;19.70;;
12745;SDS011;6437;53.686;10.030;2023-05-23T02:36:13;27.50;;;24.60;;
12745;SDS011;6437;53.686;10.030;2023-05-23T02:38:14;43.05;;;23.38;;
12745;SDS011;6437;53.686;10.030;2023-05-23T02:40:16;25.25;;;22.70;;
12745;SDS011;6437;53.686;10.030;2023-05-23T02:42:18;29.77;;;26.70;;
12745;SDS011;6437;53.686;10.030;2023-05-23T02:44:20;31.50;;;27.95;;
12745;SDS011;6437;53.686;10.030;2023-05-23T02:46:21;30.70;;;27.55;;
12745;SDS011;6437;53.686;10.030;2023-05-23T02:48:23;32.47;;;28.50;;
12745;SDS011;6437;53.686;10.030;2023-05-23T02:50:27;31.63;;;28.38;;
12745;SDS011;6437;53.686;10.030;2023-05-23T02:52:28;33.85;;;29.40;;
12745;SDS011;6437;53.686;10.030;2023-05-23T02:54:30;35.28;;;31.52;;
12745;SDS011;6437;53.686;10.030;2023-05-23T02:56:32;35.78;;;31.88;;
12745;SDS011;6437;53.686;10.030;2023-05-23T02:58:36;39.28;;;33.03;;
12745;SDS011;6437;53.686;10.030;2023-05-23T03:00:40;42.65;;;35.60;;
12745;SDS011;6437;53.686;10.030;2023-05-23T03:02:42;42.35;;;35.97;;
12745;SDS011;6437;53.686;10.030;2023-05-23T03:04:44;45.20;;;36.30;;
12745;SDS011;6437;53.686;10.030;2023-05-23T03:06:48;43.80;;;33.88;;
12745;SDS011;6437;53.686;10.030;2023-05-23T03:08:53;54.97;;;38.88;;
12745;SDS011;6437;53.686;10.030;2023-05-23T03:10:56;58.05;;;37.90;;
12745;SDS011;6437;53.686;10.030;2023-05-23T03:12:57;51.85;;;36.03;;
12745;SDS011;6437;53.686;10.030;2023-05-23T03:14:59;41.65;;;35.55;;
12745;SDS011;6437;53.686;10.030;2023-05-23T03:17:01;43.47;;;34.03;;
12745;SDS011;6437;53.686;10.030;2023-05-23T03:19:03;49.58;;;36.55;;
12745;SDS011;6437;53.686;10.030;2023-05-23T03:21:05;48.35;;;34.80;;
12745;SDS011;6437;53.686;10.030;2023-05-23T03:23:08;42.28;;;34.75;;
12745;SDS011;6437;53.686;10.030;2023-05-23T03:25:10;59.22;;;34.55;;
12745;SDS011;6437;53.686;10.030;2023-05-23T03:27:12;54.03;;;35.25;;
12745;SDS011;6437;53.686;10.030;2023-05-23T03:29:14;45.15;;;34.83;;
12745;SDS011;6437;53.686;10.030;2023-05-23T03:31:15;50.53;;;35.15;;
12745;SDS011;6437;53.686;10.030;2023-05-23T03:33:17;61.45;;;37.78;;
12745;SDS011;6437;53.686;10.030;2023-05-23T03:35:19;49.85;;;37.25;;
12745;SDS011;6437;53.686;10.030;2023-05-23T03:37:21;45.88;;;34.08;;
12745;SDS011;6437;53.686;10.030;2023-05-23T03:39:24;49.45;;;34.70;;
12745;SDS011;6437;53.686;10.030;2023-05-23T03:41:26;43.95;;;32.22;;
12745;SDS011;6437;53.686;10.030;2023-05-23T03:43:28;54.95;;;35.47;;
12745;SDS011;6437;53.686;10.030;2023-05-23T03:45:30;48.88;;;33.55;;
12745;SDS011;6437;53.686;10.030;2023-05-23T03:47:31;54.60;;;34.95;;
12745;SDS011;6437;53.686;10.030;2023-05-23T03:49:33;54.65;;;34.50;;
12745;SDS011;6437;53.686;10.030;2023-05-23T03:51:37;52.22;;;35.13;;
12745;SDS011;6437;53.686;10.030;2023-05-23T03:53:39;54.55;;;35.40;;
12745;SDS011;6437;53.686;10.030;2023-05-23T03:55:43;48.92;;;31.80;;
12745;SDS011;6437;53.686;10.030;2023-05-23T03:57:44;50.47;;;30.88;;
12745;SDS011;6437;53.686;10.030;2023-05-23T03:59:46;48.35;;;32.10;;
12745;SDS011;6437;53.686;10.030;2023-05-23T04:01:48;49.35;;;31.27;;
12745;SDS011;6437;53.686;10.030;2023-05-23T04:03:50;49.58;;;30.23;;
12745;SDS011;6437;53.686;10.030;2023-05-23T04:05:51;47.97;;;29.98;;
12745;SDS011;6437;53.686;10.030;2023-05-23T04:07:53;42.22;;;27.80;;
12745;SDS011;6437;53.686;10.030;2023-05-23T04:09:56;54.88;;;30.23;;
12745;SDS011;6437;53.686;10.030;2023-05-23T04:11:59;47.58;;;29.25;;
12745;SDS011;6437;53.686;10.030;2023-05-23T04:14:00;50.22;;;29.08;;
12745;SDS011;6437;53.686;10.030;2023-05-23T04:16:03;57.90;;;29.33;;
12745;SDS011;6437;53.686;10.030;2023-05-23T04:18:05;48.35;;;30.33;;
12745;SDS011;6437;53.686;10.030;2023-05-23T04:20:08;62.67;;;29.58;;
12745;SDS011;6437;53.686;10.030;2023-05-23T04:22:11;39.10;;;28.38;;
12745;SDS011;6437;53.686;10.030;2023-05-23T04:24:13;50.65;;;28.95;;
12745;SDS011;6437;53.686;10.030;2023-05-23T04:26:14;60.25;;;28.08;;
12745;SDS011;6437;53.686;10.030;2023-05-23T04:28:18;47.13;;;30.13;;
12745;SDS011;6437;53.686;10.030;2023-05-23T04:30:19;48.55;;;28.63;;
12745;SDS011;6437;53.686;10.030;2023-05-23T04:32:22;51.28;;;27.85;;
12745;SDS011;6437;53.686;10.030;2023-05-23T04:34:24;44.83;;;28.95;;
12745;SDS011;6437;53.686;10.030;2023-05-23T04:36:26;50.85;;;29.95;;
12745;SDS011;6437;53.686;10.030;2023-05-23T04:38:27;43.83;;;29.45;;
12745;SDS011;6437;53.686;10.030;2023-05-23T04:40:29;52.40;;;29.33;;
12745;SDS011;6437;53.686;10.030;2023-05-23T04:42:31;38.63;;;29.30;;
12745;SDS011;6437;53.686;10.030;2023-05-23T04:44:34;45.90;;;29.88;;
12745;SDS011;6437;53.686;10.030;2023-05-23T04:46:40;41.72;;;27.60;;
12745;SDS011;6437;53.686;10.030;2023-05-23T04:48:44;40.00;;;28.58;;
12745;SDS011;6437;53.686;10.030;2023-05-23T04:50:47;49.13;;;28.38;;
12745;SDS011;6437;53.686;10.030;2023-05-23T04:52:50;49.80;;;29.50;;
12745;SDS011;6437;53.686;10.030;2023-05-23T04:54:52;42.75;;;29.60;;
12745;SDS011;6437;53.686;10.030;2023-05-23T04:56:53;51.08;;;31.35;;
12745;SDS011;6437;53.686;10.030;2023-05-23T04:58:55;45.65;;;30.38;;
12745;SDS011;6437;53.686;10.030;2023-05-23T05:03:00;57.95;;;32.22;;
12745;SDS011;6437;53.686;10.030;2023-05-23T05:05:02;60.83;;;30.63;;
12745;SDS011;6437;53.686;10.030;2023-05-23T05:07:07;58.97;;;32.78;;
12745;SDS011;6437;53.686;10.030;2023-05-23T05:09:08;54.60;;;32.58;;
12745;SDS011;6437;53.686;10.030;2023-05-23T05:11:10;61.45;;;33.88;;
12745;SDS011;6437;53.686;10.030;2023-05-23T05:13:12;52.75;;;32.30;;
12745;SDS011;6437;53.686;10.030;2023-05-23T05:15:14;47.00;;;29.73;;
12745;SDS011;6437;53.686;10.030;2023-05-23T05:17:18;54.33;;;33.72;;
12745;SDS011;6437;53.686;10.030;2023-05-23T05:19:20;57.92;;;33.40;;
12745;SDS011;6437;53.686;10.030;2023-05-23T05:21:22;47.92;;;34.55;;
12745;SDS011;6437;53.686;10.030;2023-05-23T05:23:24;52.65;;;32.95;;
12745;SDS011;6437;53.686;10.030;2023-05-23T05:25:27;61.55;;;33.35;;
12745;SDS011;6437;53.686;10.030;2023-05-23T05:27:31;63.95;;;37.78;;
12745;SDS011;6437;53.686;10.030;2023-05-23T05:29:33;48.72;;;31.48;;
12745;SDS011;6437;53.686;10.030;2023-05-23T05:31:35;53.60;;;32.33;;
12745;SDS011;6437;53.686;10.030;2023-05-23T05:33:39;53.17;;;34.00;;
12745;SDS011;6437;53.686;10.030;2023-05-23T05:35:44;61.15;;;34.55;;
12745;SDS011;6437;53.686;10.030;2023-05-23T05:37:46;60.30;;;33.90;;
12745;SDS011;6437;53.686;10.030;2023-05-23T05:39:48;53.78;;;32.95;;
12745;SDS011;6437;53.686;10.030;2023-05-23T05:41:50;52.75;;;35.00;;
12745;SDS011;6437;53.686;10.030;2023-05-23T05:43:51;58.10;;;36.15;;
12745;SDS011;6437;53.686;10.030;2023-05-23T05:45:53;61.05;;;37.88;;
12745;SDS011;6437;53.686;10.030;2023-05-23T05:47:55;52.60;;;33.35;;
12745;SDS011;6437;53.686;10.030;2023-05-23T05:49:58;63.30;;;36.60;;
12745;SDS011;6437;53.686;10.030;2023-05-23T05:52:00;58.22;;;35.25;;
12745;SDS011;6437;53.686;10.030;2023-05-23T05:54:02;59.28;;;35.92;;
12745;SDS011;6437;53.686;10.030;2023-05-23T05:56:04;56.38;;;37.85;;
12745;SDS011;6437;53.686;10.030;2023-05-23T05:58:08;62.47;;;34.33;;
12745;SDS011;6437;53.686;10.030;2023-05-23T06:00:13;46.95;;;34.00;;
12745;SDS011;6437;53.686;10.030;2023-05-23T06:02:17;63.95;;;35.40;;
12745;SDS011;6437;53.686;10.030;2023-05-23T06:04:19;53.17;;;34.53;;
12745;SDS011;6437;53.686;10.030;2023-05-23T06:06:22;59.33;;;37.58;;
12745;SDS011;6437;53.686;10.030;2023-05-23T06:08:24;56.33;;;34.35;;
12745;SDS011;6437;53.686;10.030;2023-05-23T06:10:26;52.85;;;34.60;;
12745;SDS011;6437;53.686;10.030;2023-05-23T06:12:28;65.18;;;34.45;;
12745;SDS011;6437;53.686;10.030;2023-05-23T06:14:29;54.25;;;36.92;;
12745;SDS011;6437;53.686;10.030;2023-05-23T06:16:31;54.60;;;35.67;;
12745;SDS011;6437;53.686;10.030;2023-05-23T06:18:33;54.38;;;35.95;;
12745;SDS011;6437;53.686;10.030;2023-05-23T06:20:35;58.92;;;37.75;;
12745;SDS011;6437;53.686;10.030;2023-05-23T06:22:39;58.45;;;37.40;;
12745;SDS011;6437;53.686;10.030;2023-05-23T06:24:42;56.90;;;37.47;;
12745;SDS011;6437;53.686;10.030;2023-05-23T06:26:44;54.58;;;37.60;;
12745;SDS011;6437;53.686;10.030;2023-05-23T06:28:45;57.03;;;38.55;;
12745;SDS011;6437;53.686;10.030;2023-05-23T06:30:47;51.75;;;35.22;;
12745;SDS011;6437;53.686;10.030;2023-05-23T06:34:51;56.40;;;37.70;;
12745;SDS011;6437;53.686;10.030;2023-05-23T06:36:53;60.88;;;39.08;;
12745;SDS011;6437;53.686;10.030;2023-05-23T06:38:56;61.45;;;39.30;;
12745;SDS011;6437;53.686;10.030;2023-05-23T06:40:58;60.92;;;37.90;;
12745;SDS011;6437;53.686;10.030;2023-05-23T06:43:02;61.47;;;38.92;;
12745;SDS011;6437;53.686;10.030;2023-05-23T06:45:04;48.65;;;33.90;;
12745;SDS011;6437;53.686;10.030;2023-05-23T06:47:07;41.78;;;31.00;;
12745;SDS011;6437;53.686;10.030;2023-05-23T06:49:09;52.42;;;33.17;;
12745;SDS011;6437;53.686;10.030;2023-05-23T06:51:10;43.10;;;26.15;;
12745;SDS011;6437;53.686;10.030;2023-05-23T06:53:12;39.90;;;25.13;;
12745;SDS011;6437;53.686;10.030;2023-05-23T06:55:17;29.20;;;20.20;;
12745;SDS011;6437;53.686;10.030;2023-05-23T06:57:19;24.40;;;18.45;;
12745;SDS011;6437;53.686;10.030;2023-05-23T06:59:21;34.85;;;17.10;;
12745;SDS011;6437;53.686;10.030;2023-05-23T07:03:25;18.17;;;12.57;;
12745;SDS011;6437;53.686;10.030;2023-05-23T07:05:33;19.75;;;12.18;;
12745;SDS011;6437;53.686;10.030;2023-05-23T07:07:41;20.58;;;11.13;;
12745;SDS011;6437;53.686;10.030;2023-05-23T07:09:54;18.60;;;12.18;;
12745;SDS011;6437;53.686;10.030;2023-05-23T07:11:58;15.75;;;10.68;;
12745;SDS011;6437;53.686;10.030;2023-05-23T07:14:00;17.83;;;11.55;;
12745;SDS011;6437;53.686;10.030;2023-05-23T07:16:01;17.80;;;11.25;;
12745;SDS011;6437;53.686;10.030;2023-05-23T07:20:06;13.95;;;9.90;;
12745;SDS011;6437;53.686;10.030;2023-05-23T07:22:08;14.13;;;7.85;;
12745;SDS011;6437;53.686;10.030;2023-05-23T07:24:10;18.65;;;9.00;;
12745;SDS011;6437;53.686;10.030;2023-05-23T07:26:12;9.73;;;8.55;;
12745;SDS011;6437;53.686;10.030;2023-05-23T07:28:15;12.73;;;7.07;;
12745;SDS011;6437;53.686;10.030;2023-05-23T07:30:26;16.17;;;7.78;;
12745;SDS011;6437;53.686;10.030;2023-05-23T07:32:29;14.38;;;7.93;;
12745;SDS011;6437;53.686;10.030;2023-05-23T07:34:31;10.48;;;6.93;;
12745;SDS011;6437;53.686;10.030;2023-05-23T07:36:33;10.20;;;6.75;;
12745;SDS011;6437;53.686;10.030;2023-05-23T07:38:36;14.63;;;7.18;;
12745;SDS011;6437;53.686;10.030;2023-05-23T07:40:39;11.70;;;6.97;;
12745;SDS011;6437;53.686;10.030;2023-05-23T07:42:55;13.88;;;6.95;;
12745;SDS011;6437;53.686;10.030;2023-05-23T07:44:58;9.38;;;6.90;;
12745;SDS011;6437;53.686;10.030;2023-05-23T07:47:00;12.55;;;6.90;;
12745;SDS011;6437;53.686;10.030;2023-05-23T07:49:02;12.10;;;6.75;;
12745;SDS011;6437;53.686;10.030;2023-05-23T07:51:04;12.20;;;5.93;;
12745;SDS011;6437;53.686;10.030;2023-05-23T07:53:06;12.52;;;6.63;;
12745;SDS011;6437;53.686;10.030;2023-05-23T07:55:08;9.68;;;5.72;;
12745;SDS011;6437;53.686;10.030;2023-05-23T07:57:10;14.90;;;6.13;;
12745;SDS011;6437;53.686;10.030;2023-05-23T07:59:12;12.13;;;6.43;;
12745;SDS011;6437;53.686;10.030;2023-05-23T08:01:15;15.20;;;5.45;;
12745;SDS011;6437;53.686;10.030;2023-05-23T08:03:17;7.20;;;6.10;;
12745;SDS011;6437;53.686;10.030;2023-05-23T08:05:19;15.27;;;5.97;;
12745;SDS011;6437;53.686;10.030;2023-05-23T08:07:23;11.98;;;5.68;;
12745;SDS011;6437;53.686;10.030;2023-05-23T08:09:24;10.48;;;6.93;;
12745;SDS011;6437;53.686;10.030;2023-05-23T08:11:26;14.35;;;6.60;;
12745;SDS011;6437;53.686;10.030;2023-05-23T08:13:29;10.93;;;5.15;;
12745;SDS011;6437;53.686;10.030;2023-05-23T08:17:34;16.40;;;6.03;;
12745;SDS011;6437;53.686;10.030;2023-05-23T08:19:36;9.90;;;5.68;;
12745;SDS011;6437;53.686;10.030;2023-05-23T08:21:39;7.60;;;5.50;;
12745;SDS011;6437;53.686;10.030;2023-05-23T08:23:42;6.45;;;5.30;;
12745;SDS011;6437;53.686;10.030;2023-05-23T08:25:44;8.05;;;6.25;;
12745;SDS011;6437;53.686;10.030;2023-05-23T08:27:46;6.63;;;4.57;;
12745;SDS011;6437;53.686;10.030;2023-05-23T08:30:05;10.52;;;4.05;;
12745;SDS011;6437;53.686;10.030;2023-05-23T08:32:09;4.85;;;4.32;;
12745;SDS011;6437;53.686;10.030;2023-05-23T08:34:12;6.25;;;4.22;;
12745;SDS011;6437;53.686;10.030;2023-05-23T08:36:15;12.98;;;4.07;;
12745;SDS011;6437;53.686;10.030;2023-05-23T08:38:16;6.07;;;3.90;;
12745;SDS011;6437;53.686;10.030;2023-05-23T08:40:21;15.38;;;4.75;;
12745;SDS011;6437;53.686;10.030;2023-05-23T08:42:23;8.07;;;3.67;;
12745;SDS011;6437;53.686;10.030;2023-05-23T08:44:25;6.22;;;3.53;;
12745;SDS011;6437;53.686;10.030;2023-05-23T08:46:27;8.05;;;3.88;;
12745;SDS011;6437;53.686;10.030;2023-05-23T08:48:30;10.43;;;3.10;;
12745;SDS011;6437;53.686;10.030;2023-05-23T08:50:38;8.40;;;3.28;;
12745;SDS011;6437;53.686;10.030;2023-05-23T08:52:43;5.82;;;3.53;;
12745;SDS011;6437;53.686;10.030;2023-05-23T08:54:51;5.03;;;3.47;;
12745;SDS011;6437;53.686;10.030;2023-05-23T08:56:56;6.68;;;3.83;;
12745;SDS011;6437;53.686;10.030;2023-05-23T08:58:59;14.05;;;4.15;;
12745;SDS011;6437;53.686;10.030;2023-05-23T09:01:01;8.63;;;3.25;;
12745;SDS011;6437;53.686;10.030;2023-05-23T09:03:03;9.55;;;4.82;;
12745;SDS011;6437;53.686;10.030;2023-05-23T09:07:10;12.05;;;4.75;;
12745;SDS011;6437;53.686;10.030;2023-05-23T09:09:12;7.85;;;4.30;;
12745;SDS011;6437;53.686;10.030;2023-05-23T09:11:15;6.10;;;4.85;;
12745;SDS011;6437;53.686;10.030;2023-05-23T09:13:16;8.77;;;4.85;;
12745;SDS011;6437;53.686;10.030;2023-05-23T09:15:19;8.50;;;4.32;;
12745;SDS011;6437;53.686;10.030;2023-05-23T09:17:22;8.82;;;6.03;;
12745;SDS011;6437;53.686;10.030;2023-05-23T09:19:24;15.27;;;7.93;;
12745;SDS011;6437;53.686;10.030;2023-05-23T09:21:26;12.38;;;6.63;;
12745;SDS011;6437;53.686;10.030;2023-05-23T09:23:34;9.85;;;5.88;;
12745;SDS011;6437;53.686;10.030;2023-05-23T09:25:38;10.68;;;6.13;;
12745;SDS011;6437;53.686;10.030;2023-05-23T09:27:50;11.15;;;7.15;;
12745;SDS011;6437;53.686;10.030;2023-05-23T09:29:53;17.75;;;7.18;;
12745;SDS011;6437;53.686;10.030;2023-05-23T09:31:58;11.07;;;6.70;;
12745;SDS011;6437;53.686;10.030;2023-05-23T09:34:10;10.85;;;5.90;;
12745;SDS011;6437;53.686;10.030;2023-05-23T09:36:12;15.70;;;6.05;;
12745;SDS011;6437;53.686;10.030;2023-05-23T09:38:14;9.20;;;5.85;;
12745;SDS011;6437;53.686;10.030;2023-05-23T09:40:18;11.38;;;5.88;;
12745;SDS011;6437;53.686;10.030;2023-05-23T09:42:20;10.25;;;5.38;;
12745;SDS011;6437;53.686;10.030;2023-05-23T09:44:22;5.95;;;3.75;;
12745;SDS011;6437;53.686;10.030;2023-05-23T09:46:27;6.60;;;3.90;;
12745;SDS011;6437;53.686;10.030;2023-05-23T09:48:29;5.85;;;3.67;;
12745;SDS011;6437;53.686;10.030;2023-05-23T09:54:40;3.60;;;2.55;;
12745;SDS011;6437;53.686;10.030;2023-05-23T09:56:46;7.97;;;3.88;;
12745;SDS011;6437;53.686;10.030;2023-05-23T09:58:51;8.10;;;3.20;;
12745;SDS011;6437;53.686;10.030;2023-05-23T10:00:54;4.43;;;2.42;;
12745;SDS011;6437;53.686;10.030;2023-05-23T10:03:03;5.88;;;2.53;;
12745;SDS011;6437;53.686;10.030;2023-05-23T10:05:30;6.43;;;2.75;;
12745;SDS011;6437;53.686;10.030;2023-05-23T10:07:36;12.60;;;3.15;;
12745;SDS011;6437;53.686;10.030;2023-05-23T10:09:52;8.65;;;2.50;;
12745;SDS011;6437;53.686;10.030;2023-05-23T10:14:37;6.90;;;3.67;;
12745;SDS011;6437;53.686;10.030;2023-05-23T10:16:48;6.25;;;2.55;;
12745;SDS011;6437;53.686;10.030;2023-05-23T10:19:02;6.35;;;2.45;;
12745;SDS011;6437;53.686;10.030;2023-05-23T10:21:08;12.68;;;3.53;;
12745;SDS011;6437;53.686;10.030;2023-05-23T10:23:19;8.02;;;3.45;;
12745;SDS011;6437;53.686;10.030;2023-05-23T10:25:25;8.93;;;2.38;;
12745;SDS011;6437;53.686;10.030;2023-05-23T10:29:29;6.60;;;1.87;;
12745;SDS011;6437;53.686;10.030;2023-05-23T10:31:35;6.00;;;2.78;;
12745;SDS011;6437;53.686;10.030;2023-05-23T10:33:39;5.22;;;1.63;;
12745;SDS011;6437;53.686;10.030;2023-05-23T10:35:55;5.95;;;1.50;;
12745;SDS011;6437;53.686;10.030;2023-05-23T10:38:03;14.82;;;1.95;;
12745;SDS011;6437;53.686;10.030;2023-05-23T10:40:12;8.15;;;2.25;;
12745;SDS011;6437;53.686;10.030;2023-05-23T10:42:26;13.52;;;2.42;;
12745;SDS011;6437;53.686;10.030;2023-05-23T10:44:35;4.68;;;1.95;;
12745;SDS011;6437;53.686;10.030;2023-05-23T10:46:52;13.02;;;2.00;;
12745;SDS011;6437;53.686;10.030;2023-05-23T10:48:54;9.38;;;1.95;;
12745;SDS011;6437;53.686;10.030;2023-05-23T10:51:00;5.68;;;1.48;;
12745;SDS011;6437;53.686;10.030;2023-05-23T10:53:04;12.40;;;2.70;;
12745;SDS011;6437;53.686;10.030;2023-05-23T10:55:12;16.92;;;2.95;;
12745;SDS011;6437;53.686;10.030;2023-05-23T10:57:22;11.05;;;2.47;;
12745;SDS011;6437;53.686;10.030;2023-05-23T10:59:26;9.20;;;2.08;;
12745;SDS011;6437;53.686;10.030;2023-05-23T11:01:29;5.70;;;2.10;;
12745;SDS011;6437;53.686;10.030;2023-05-23T11:03:49;11.88;;;2.58;;
12745;SDS011;6437;53.686;10.030;2023-05-23T11:06:08;20.05;;;2.28;;
12745;SDS011;6437;53.686;10.030;2023-05-23T11:08:38;8.88;;;2.53;;
12745;SDS011;6437;53.686;10.030;2023-05-23T11:10:51;8.95;;;3.13;;
12745;SDS011;6437;53.686;10.030;2023-05-23T11:13:05;9.95;;;2.63;;
12745;SDS011;6437;53.686;10.030;2023-05-23T11:15:23;13.95;;;2.67;;
12745;SDS011;6437;53.686;10.030;2023-05-23T11:17:29;11.88;;;3.15;;
12745;SDS011;6437;53.686;10.030;2023-05-23T11:19:33;9.63;;;2.45;;
12745;SDS011;6437;53.686;10.030;2023-05-23T11:21:35;11.60;;;3.38;;
12745;SDS011;6437;53.686;10.030;2023-05-23T11:23:38;14.85;;;2.90;;
12745;SDS011;6437;53.686;10.030;2023-05-23T11:26:01;9.45;;;2.22;;
12745;SDS011;6437;53.686;10.030;2023-05-23T11:28:03;16.48;;;3.08;;
12745;SDS011;6437;53.686;10.030;2023-05-23T11:30:09;13.27;;;3.00;;
12745;SDS011;6437;53.686;10.030;2023-05-23T11:32:22;13.40;;;3.05;;
12745;SDS011;6437;53.686;10.030;2023-05-23T11:34:24;14.70;;;3.20;;
12745;SDS011;6437;53.686;10.030;2023-05-23T11:38:30;16.45;;;2.40;;
12745;SDS011;6437;53.686;10.030;2023-05-23T11:40:33;11.05;;;2.38;;
12745;SDS011;6437;53.686;10.030;2023-05-23T11:42:40;14.00;;;4.38;;
12745;SDS011;6437;53.686;10.030;2023-05-23T11:44:47;8.82;;;2.53;;
12745;SDS011;6437;53.686;10.030;2023-05-23T11:47:05;20.27;;;3.30;;
12745;SDS011;6437;53.686;10.030;2023-05-23T11:49:10;9.45;;;2.08;;
12745;SDS011;6437;53.686;10.030;2023-05-23T11:51:13;12.40;;;2.97;;
12745;SDS011;6437;53.686;10.030;2023-05-23T11:53:17;10.00;;;2.60;;
12745;SDS011;6437;53.686;10.030;2023-05-23T11:55:21;18.15;;;4.22;;
12745;SDS011;6437;53.686;10.030;2023-05-23T11:57:23;17.20;;;3.10;;
12745;SDS011;6437;53.686;10.030;2023-05-23T11:59:25;24.65;;;3.28;;
12745;SDS011;6437;53.686;10.030;2023-05-23T12:01:28;19.90;;;4.18;;
12745;SDS011;6437;53.686;10.030;2023-05-23T12:03:32;27.70;;;3.45;;
12745;SDS011;6437;53.686;10.030;2023-05-23T12:05:38;15.25;;;3.45;;
12745;SDS011;6437;53.686;10.030;2023-05-23T12:07:59;19.92;;;2.85;;
12745;SDS011;6437;53.686;10.030;2023-05-23T12:10:04;29.85;;;4.47;;
12745;SDS011;6437;53.686;10.030;2023-05-23T12:12:06;18.58;;;3.13;;
12745;SDS011;6437;53.686;10.030;2023-05-23T12:14:08;13.73;;;3.63;;
12745;SDS011;6437;53.686;10.030;2023-05-23T12:16:14;20.50;;;3.50;;
12745;SDS011;6437;53.686;10.030;2023-05-23T12:18:16;19.95;;;2.97;;
12745;SDS011;6437;53.686;10.030;2023-05-23T12:20:19;13.70;;;3.15;;
12745;SDS011;6437;53.686;10.030;2023-05-23T12:22:22;23.77;;;3.55;;
12745;SDS011;6437;53.686;10.030;2023-05-23T12:24:24;15.20;;;3.00;;
12745;SDS011;6437;53.686;10.030;2023-05-23T12:26:27;21.85;;;4.00;;
12745;SDS011;6437;53.686;10.030;2023-05-23T12:28:35;22.83;;;4.30;;
12745;SDS011;6437;53.686;10.030;2023-05-23T12:30:41;19.77;;;4.03;;
12745;SDS011;6437;53.686;10.030;2023-05-23T12:32:44;18.75;;;3.75;;
12745;SDS011;6437;53.686;10.030;2023-05-23T12:34:48;14.63;;;3.65;;
12745;SDS011;6437;53.686;10.030;2023-05-23T12:36:49;14.23;;;3.63;;
12745;SDS011;6437;53.686;10.030;2023-05-23T12:39:00;16.08;;;3.95;;
12745;SDS011;6437;53.686;10.030;2023-05-23T12:41:09;17.63;;;4.00;;
12745;SDS011;6437;53.686;10.030;2023-05-23T12:43:14;21.50;;;3.38;;
12745;SDS011;6437;53.686;10.030;2023-05-23T12:45:15;19.10;;;4.43;;